Terminal Aerodrome Forecast
Issued by NWS Buffalo, NY

Home | Current Version | Previous Version | Text Only | Print | Product List | Glossary On
Versions: 1 2 3 4 5 6 7 8 9 10 11 12 13 14 15 16 17 18 19 20 21 22 23 24 25 26
000
FTUS41 KBUF 270900 AAA
TAFBUF
TAF AMD
KBUF 270917Z 2709/2806 30005KT P6SM VCSH OVC040
     FM271000 29005KT P6SM VCSH OVC035
      TEMPO 2711/2715 -SHRA BKN025
     FM271600 32009KT P6SM VCSH OVC025
     FM271800 30011KT P6SM OVC025
     FM272000 30012KT P6SM OVC035
     FM280500 30007KT P6SM OVC035=

USA.gov is the U.S. government's official web portal to all federal, state and local government web resources and services.